Back to Top

Language: 

My Weather Underground Personal Weather Station Historical Data with Graphs...

Delerius Weather Station Historical Data
Daily Summary for January 21, 2017 Units:  Metric    English   Both
« Previous Day
Next Day »
Daily Weekly Monthly Yearly Custom
  High: Low: Average:
Temperature: 4.4 °C 1.1 °C 3.1 °C
Dew Point: 3.3 °C 0.4 °C 2.2 °C
Humidity: 97 % 85 % 94 %
Wind Speed: 11.3 km/h 0 km/h 3.9 km/h
Wind Gust: 11.3 km/h - -
Wind:- - ESE
Pressure: 1032.7 hPa 1024.9 hPa -
Precipitation: 0 mm    
Historical Graphs
 
 
Tabular Data for January 21, 2017
Time Temperature Dew Point Pressure Wind Wind Speed Wind Gust Humidity Rainfall Rate (Hourly) solar Conditions
00:00 1.1 °C 0.6 °C 1032.7 hPa Calm     96 % 0 mm 0 W/m2
00:01 1.1 °C 0.6 °C 1032.7 hPa Calm   -1607.7 km/h 96 % 0 mm 0 W/m2
00:05 1.1 °C 0.4 °C 1032.7 hPa Calm     95 % 0 mm 0 W/m2
00:06 1.1 °C 0.6 °C 1032.7 hPa Calm   -1607.7 km/h 96 % 0 mm 0 W/m2
00:11 1.1 °C 0.6 °C 1032.7 hPa Calm   -1607.7 km/h 96 % 0 mm 0 W/m2
00:15 1.2 °C 0.4 °C 1032.7 hPa Calm     95 % 0 mm 0 W/m2
00:16 1.1 °C 0.6 °C 1032.7 hPa Calm   -1607.7 km/h 96 % 0 mm 0 W/m2
00:20 1.2 °C 0.7 °C 1032.7 hPa Calm     96 % 0 mm 0 W/m2
00:21 1.1 °C 0.6 °C 1032.7 hPa Calm   -1607.7 km/h 96 % 0 mm 0 W/m2
00:26 1.3 °C 0.7 °C 1032.7 hPa Calm   -1607.7 km/h 96 % 0 mm 0 W/m2
00:30 1.3 °C 0.8 °C 1032.7 hPa Calm     96 % 0 mm 0 W/m2
00:31 1.3 °C 0.7 °C 1032.7 hPa Calm   -1607.7 km/h 96 % 0 mm 0 W/m2
00:35 1.4 °C 0.8 °C 1032.7 hPa Calm     96 % 0 mm 0 W/m2
00:36 1.3 °C 0.7 °C 1032.7 hPa Calm   -1607.7 km/h 96 % 0 mm 0 W/m2
00:40 1.4 °C 0.9 °C 1032.4 hPa Calm     96 % 0 mm 0 W/m2
00:41 1.4 °C 0.7 °C 1032.4 hPa Calm   -1607.7 km/h 95 % 0 mm 0 W/m2
00:46 1.4 °C 0.7 °C 1032.4 hPa Calm   -1607.7 km/h 95 % 0 mm 0 W/m2
00:50 1.3 °C 0.6 °C 1032.7 hPa Calm     95 % 0 mm 0 W/m2
00:51 1.4 °C 0.7 °C 1032.4 hPa Calm   -1607.7 km/h 95 % 0 mm 0 W/m2
00:55 1.4 °C 0.7 °C 1032.4 hPa Calm     95 % 0 mm 0 W/m2
00:56 1.4 °C 0.8 °C 1032.4 hPa Calm   -1607.7 km/h 96 % 0 mm 0 W/m2
01:00 1.4 °C 0.9 °C 1032.4 hPa Calm     96 % 0 mm 0 W/m2
01:01 1.4 °C 0.8 °C 1032.4 hPa Calm   -1607.7 km/h 96 % 0 mm 0 W/m2
01:05 1.6 °C 1 °C 1032.4 hPa Calm     96 % 0 mm 0 W/m2
01:06 1.4 °C 0.8 °C 1032.4 hPa Calm   -1607.7 km/h 96 % 0 mm 0 W/m2
01:10 1.7 °C 1.2 °C 1032.4 hPa Calm     96 % 0 mm 0 W/m2
01:11 1.7 °C 1.1 °C 1032.4 hPa Calm   -1607.7 km/h 96 % 0 mm 0 W/m2
01:15 1.8 °C 1.3 °C 1032.4 hPa Calm     96 % 0 mm 0 W/m2
01:16 1.7 °C 1.1 °C 1032.4 hPa Calm   -1607.7 km/h 96 % 0 mm 0 W/m2
01:21 1.7 °C 1.1 °C 1032.4 hPa Calm   -1607.7 km/h 96 % 0 mm 0 W/m2
01:25 1.9 °C 1.3 °C 1032.4 hPa Calm     96 % 0 mm 0 W/m2
01:26 1.9 °C 1.3 °C 1032.4 hPa Calm   -1607.7 km/h 96 % 0 mm 0 W/m2
01:30 1.9 °C 1.4 °C 1032.4 hPa Calm     96 % 0 mm 0 W/m2
01:31 1.9 °C 1.3 °C 1032.4 hPa Calm   -1607.7 km/h 96 % 0 mm 0 W/m2
01:36 1.9 °C 1.3 °C 1032.4 hPa Calm   -1607.7 km/h 96 % 0 mm 0 W/m2
01:40 2 °C 1.4 °C 1032.4 hPa Calm     96 % 0 mm 0 W/m2
01:41 2 °C 1.4 °C 1032.4 hPa Calm   -1607.7 km/h 96 % 0 mm 0 W/m2
01:45 2.1 °C 1.5 °C 1032.4 hPa Calm     96 % 0 mm 0 W/m2
01:46 2 °C 1.4 °C 1032.4 hPa Calm   -1607.7 km/h 96 % 0 mm 0 W/m2
01:50 2.1 °C 1.5 °C 1032.4 hPa Calm     96 % 0 mm 0 W/m2
01:51 2 °C 1.4 °C 1032.4 hPa Calm   -1607.7 km/h 96 % 0 mm 0 W/m2
01:55 2.1 °C 1.5 °C 1032.4 hPa Calm     96 % 0 mm 0 W/m2
01:56 2.1 °C 1.5 °C 1032.4 hPa Calm   -1607.7 km/h 96 % 0 mm 0 W/m2
02:00 2.1 °C 1.5 °C 1032.4 hPa Calm     96 % 0 mm 0 W/m2
02:01 2.1 °C 1.5 °C 1032.4 hPa Calm   -1607.7 km/h 96 % 0 mm 0 W/m2
02:05 2 °C 1.4 °C 1032.4 hPa Calm     96 % 0 mm 0 W/m2
02:06 2.1 °C 1.5 °C 1032.4 hPa Calm   -1607.7 km/h 96 % 0 mm 0 W/m2
02:10 1.9 °C 1.3 °C 1032.4 hPa Calm     96 % 0 mm 0 W/m2
02:11 1.9 °C 1.2 °C 1032.4 hPa Calm   -1607.7 km/h 95 % 0 mm 0 W/m2
02:15 1.8 °C 1.1 °C 1032.4 hPa Calm     95 % 0 mm 0 W/m2
02:16 1.9 °C 1.2 °C 1032.4 hPa Calm   -1607.7 km/h 95 % 0 mm 0 W/m2
02:21 1.9 °C 1.2 °C 1032.4 hPa Calm   -1607.7 km/h 95 % 0 mm 0 W/m2
02:25 1.7 °C 0.9 °C 1032.1 hPa Calm     95 % 0 mm 0 W/m2
02:26 1.7 °C 1 °C 1032.1 hPa Calm   -1607.7 km/h 95 % 0 mm 0 W/m2
02:31 1.7 °C 1 °C 1032.1 hPa Calm   -1607.7 km/h 95 % 0 mm 0 W/m2
02:35 1.5 °C 0.8 °C 1032.1 hPa Calm     95 % 0 mm 0 W/m2
02:36 1.7 °C 1 °C 1032.1 hPa Calm   -1607.7 km/h 95 % 0 mm 0 W/m2
02:40 1.4 °C 0.7 °C 1032.1 hPa Calm     95 % 0 mm 0 W/m2
02:41 1.4 °C 0.7 °C 1032.1 hPa Calm   -1607.7 km/h 95 % 0 mm 0 W/m2
02:45 1.3 °C 0.6 °C 1032.1 hPa Calm     95 % 0 mm 0 W/m2
02:46 1.4 °C 0.7 °C 1032.1 hPa Calm   -1607.7 km/h 95 % 0 mm 0 W/m2
02:50 1.3 °C 0.8 °C 1032.1 hPa Calm     96 % 0 mm 0 W/m2
02:51 1.4 °C 0.7 °C 1032.1 hPa Calm   -1607.7 km/h 95 % 0 mm 0 W/m2
02:55 1.3 °C 0.8 °C 1032.1 hPa Calm     96 % 0 mm 0 W/m2
02:56 1.3 °C 0.8 °C 1032.1 hPa Calm   -1607.7 km/h 96 % 0 mm 0 W/m2
03:00 1.4 °C 0.8 °C 1032.1 hPa Calm     96 % 0 mm 0 W/m2
03:01 1.3 °C 0.8 °C 1032.1 hPa Calm   -1607.7 km/h 96 % 0 mm 0 W/m2
03:05 1.4 °C 0.9 °C 1031.7 hPa Calm     96 % 0 mm 0 W/m2
03:06 1.3 °C 0.8 °C 1032.1 hPa Calm   -1607.7 km/h 96 % 0 mm 0 W/m2
03:10 1.4 °C 0.8 °C 1031.7 hPa Calm     96 % 0 mm 0 W/m2
03:11 1.4 °C 0.8 °C 1031.7 hPa Calm   -1607.7 km/h 96 % 0 mm 0 W/m2
03:16 1.4 °C 0.8 °C 1031.7 hPa Calm   -1607.7 km/h 96 % 0 mm 0 W/m2
03:20 1.4 °C 0.9 °C 1031.7 hPa Calm     96 % 0 mm 0 W/m2
03:21 1.4 °C 0.8 °C 1031.7 hPa Calm   -1607.7 km/h 96 % 0 mm 0 W/m2
03:25 1.5 °C 0.9 °C 1031.7 hPa Calm     96 % 0 mm 0 W/m2
03:26 1.4 °C 0.9 °C 1031.4 hPa Calm   -1607.7 km/h 96 % 0 mm 0 W/m2
03:30 1.5 °C 0.9 °C 1031.4 hPa Calm     96 % 0 mm 0 W/m2
03:31 1.4 °C 0.9 °C 1031.4 hPa Calm   -1607.7 km/h 96 % 0 mm 0 W/m2
03:36 1.4 °C 0.9 °C 1031.4 hPa Calm   -1607.7 km/h 96 % 0 mm 0 W/m2
03:40 1.7 °C 1.2 °C 1031.4 hPa Calm     96 % 0 mm 0 W/m2
03:41 1.7 °C 1.1 °C 1031.4 hPa Calm   -1607.7 km/h 96 % 0 mm 0 W/m2
03:45 1.8 °C 1.3 °C 1031.4 hPa Calm     96 % 0 mm 0 W/m2
03:46 1.7 °C 1.1 °C 1031.4 hPa Calm   -1607.7 km/h 96 % 0 mm 0 W/m2
03:50 1.8 °C 1.3 °C 1031.4 hPa Calm     96 % 0 mm 0 W/m2
03:51 1.7 °C 1.1 °C 1031.4 hPa Calm   -1607.7 km/h 96 % 0 mm 0 W/m2
03:55 2 °C 1.6 °C 1031.4 hPa Calm     97 % 0 mm 0 W/m2
03:56 1.9 °C 1.5 °C 1031.4 hPa Calm   -1607.7 km/h 97 % 0 mm 0 W/m2
04:00 2.1 °C 1.7 °C 1031.4 hPa Calm     97 % 0 mm 0 W/m2
04:01 1.9 °C 1.5 °C 1031.4 hPa Calm   -1607.7 km/h 97 % 0 mm 0 W/m2
04:06 1.9 °C 1.5 °C 1031.4 hPa Calm   -1607.7 km/h 97 % 0 mm 0 W/m2
04:10 2 °C 1.4 °C 1031.4 hPa Calm     96 % 0 mm 0 W/m2
04:11 2 °C 1.4 °C 1031.4 hPa Calm   -1607.7 km/h 96 % 0 mm 0 W/m2
04:15 1.9 °C 1.4 °C 1031.4 hPa Calm     96 % 0 mm 0 W/m2
04:16 2 °C 1.4 °C 1031.4 hPa Calm   -1607.7 km/h 96 % 0 mm 0 W/m2
04:20 1.9 °C 1.4 °C 1031.4 hPa Calm     96 % 0 mm 0 W/m2
04:21 2 °C 1.4 °C 1031.4 hPa Calm   -1607.7 km/h 96 % 0 mm 0 W/m2
04:25 1.9 °C 1.4 °C 1031.4 hPa Calm     96 % 0 mm 0 W/m2
04:26 1.9 °C 1.4 °C 1031 hPa Calm   -1607.7 km/h 96 % 0 mm 0 W/m2
04:30 1.9 °C 1.4 °C 1031 hPa Calm     96 % 0 mm 0 W/m2
04:31 1.9 °C 1.4 °C 1031 hPa Calm   -1607.7 km/h 96 % 0 mm 0 W/m2
04:35 2 °C 1.4 °C 1031.4 hPa Calm     96 % 0 mm 0 W/m2
04:36 1.9 °C 1.4 °C 1031 hPa Calm   -1607.7 km/h 96 % 0 mm 0 W/m2
04:40 2.1 °C 1.5 °C 1031 hPa Calm     96 % 0 mm 0 W/m2
04:41 2.1 °C 1.6 °C 1031.4 hPa Calm   -1607.7 km/h 97 % 0 mm 0 W/m2
04:45 2.1 °C 1.7 °C 1031.4 hPa Calm     97 % 0 mm 0 W/m2
04:46 2.1 °C 1.6 °C 1031.4 hPa Calm   -1607.7 km/h 97 % 0 mm 0 W/m2
04:50 2.2 °C 1.8 °C 1031.4 hPa Calm   3.2 km/h 97 % 0 mm 0 W/m2
04:51 2.1 °C 1.6 °C 1031.4 hPa Calm   -1607.7 km/h 97 % 0 mm 0 W/m2
04:55 2.4 °C 1.9 °C 1031 hPa ESE 3.2 km/h 6.4 km/h 97 % 0 mm 0 W/m2
04:56 2.3 °C 1.9 °C 1031 hPa ESE 1.6 km/h -1607.7 km/h 97 % 0 mm 0 W/m2
05:01 2.3 °C 1.9 °C 1031 hPa ESE 1.6 km/h -1607.7 km/h 97 % 0 mm 0 W/m2
05:05 2.6 °C 2.1 °C 1031 hPa SE 3.2 km/h 3.2 km/h 97 % 0 mm 0 W/m2
05:06 2.3 °C 1.9 °C 1031 hPa ESE 1.6 km/h -1607.7 km/h 97 % 0 mm 0 W/m2
05:10 2.7 °C 2.2 °C 1031 hPa SE 3.2 km/h 3.2 km/h 97 % 0 mm 0 W/m2
05:11 2.7 °C 2.2 °C 1031 hPa SE 1.6 km/h -1607.7 km/h 97 % 0 mm 0 W/m2
05:15 2.7 °C 2.3 °C 1031 hPa SE 1.6 km/h 3.2 km/h 97 % 0 mm 0 W/m2
05:16 2.7 °C 2.2 °C 1031 hPa SE 1.6 km/h -1607.7 km/h 97 % 0 mm 0 W/m2
05:20 2.8 °C 2.3 °C 1031 hPa Calm   6.4 km/h 97 % 0 mm 0 W/m2
05:21 2.7 °C 2.2 °C 1031 hPa SE 1.6 km/h -1607.7 km/h 97 % 0 mm 0 W/m2
05:25 2.8 °C 2.3 °C 1031 hPa ESE 1.6 km/h 11.3 km/h 97 % 0 mm 0 W/m2
05:26 2.8 °C 2.3 °C 1031 hPa ESE 3.2 km/h -1607.7 km/h 97 % 0 mm 0 W/m2
05:30 2.8 °C 2.4 °C 1031 hPa ESE 4.8 km/h 4.8 km/h 97 % 0 mm 0 W/m2
05:31 2.8 °C 2.3 °C 1031 hPa ESE 3.2 km/h -1607.7 km/h 97 % 0 mm 0 W/m2
05:35 2.9 °C 2.4 °C 1031 hPa SSE 3.2 km/h 9.7 km/h 97 % 0 mm 0 W/m2
05:36 2.8 °C 2.3 °C 1031 hPa ESE 3.2 km/h -1607.7 km/h 97 % 0 mm 0 W/m2
05:40 2.9 °C 2.5 °C 1031 hPa SE 3.2 km/h 8 km/h 97 % 0 mm 0 W/m2
05:41 2.9 °C 2.5 °C 1031 hPa ESE 4.8 km/h -1607.7 km/h 97 % 0 mm 0 W/m2
05:45 2.9 °C 2.5 °C 1031 hPa ESE 4.8 km/h 11.3 km/h 97 % 0 mm 0 W/m2
05:46 2.9 °C 2.5 °C 1031 hPa ESE 4.8 km/h -1607.7 km/h 97 % 0 mm 0 W/m2
05:51 2.9 °C 2.5 °C 1031 hPa ESE 4.8 km/h -1607.7 km/h 97 % 0 mm 0 W/m2
05:55 3 °C 2.6 °C 1031 hPa SSE 6.4 km/h 9.7 km/h 97 % 0 mm 0 W/m2
05:56 3 °C 2.4 °C 1030.7 hPa SE 6.4 km/h -1607.7 km/h 96 % 0 mm 0 W/m2
06:00 3 °C 2.4 °C 1030.7 hPa ESE 4.8 km/h 8 km/h 96 % 0 mm 0 W/m2
06:01 3 °C 2.4 °C 1030.7 hPa SE 6.4 km/h -1607.7 km/h 96 % 0 mm 0 W/m2
06:06 3 °C 2.4 °C 1030.7 hPa SE 6.4 km/h -1607.7 km/h 96 % 0 mm 0 W/m2
06:10 3 °C 2.4 °C 1030.7 hPa ESE 3.2 km/h 3.2 km/h 96 % 0 mm 0 W/m2
06:11 3 °C 2.4 °C 1030.7 hPa ESE 3.2 km/h -1607.7 km/h 96 % 0 mm 0 W/m2
06:15 3 °C 2.4 °C 1030.7 hPa SE 3.2 km/h 3.2 km/h 96 % 0 mm 0 W/m2
06:16 3 °C 2.4 °C 1030.7 hPa ESE 3.2 km/h -1607.7 km/h 96 % 0 mm 0 W/m2
06:20 3.1 °C 2.6 °C 1030.7 hPa SE 1.6 km/h 1.6 km/h 97 % 0 mm 0 W/m2
06:21 3 °C 2.4 °C 1030.7 hPa ESE 3.2 km/h -1607.7 km/h 96 % 0 mm 0 W/m2
06:26 3.1 °C 2.6 °C 1030.7 hPa ESE 3.2 km/h -1607.7 km/h 97 % 0 mm 0 W/m2
06:30 3.1 °C 2.6 °C 1030.7 hPa ESE 3.2 km/h 6.4 km/h 97 % 0 mm 0 W/m2
06:31 3.1 °C 2.6 °C 1030.7 hPa ESE 3.2 km/h -1607.7 km/h 97 % 0 mm 0 W/m2
06:35 3.1 °C 2.6 °C 1030.7 hPa ESE 4.8 km/h 9.7 km/h 97 % 0 mm 0 W/m2
06:36 3.1 °C 2.6 °C 1030.7 hPa ESE 3.2 km/h -1607.7 km/h 97 % 0 mm 0 W/m2
06:40 3.1 °C 2.6 °C 1030.7 hPa ESE 6.4 km/h 6.4 km/h 96 % 0 mm 0 W/m2
06:41 3.1 °C 2.6 °C 1030.7 hPa ESE 4.8 km/h -1607.7 km/h 96 % 0 mm 0 W/m2
06:45 3.1 °C 2.6 °C 1030.7 hPa ESE 4.8 km/h 6.4 km/h 96 % 0 mm 0 W/m2
06:46 3.1 °C 2.6 °C 1030.7 hPa ESE 4.8 km/h -1607.7 km/h 96 % 0 mm 0 W/m2
06:50 3.1 °C 2.6 °C 1030.7 hPa ESE 3.2 km/h 3.2 km/h 96 % 0 mm 0 W/m2
06:51 3.1 °C 2.6 °C 1030.7 hPa ESE 4.8 km/h -1607.7 km/h 96 % 0 mm 0 W/m2
06:55 3.1 °C 2.6 °C 1030.4 hPa SSE 4.8 km/h 4.8 km/h 96 % 0 mm 0 W/m2
06:56 3.1 °C 2.6 °C 1030.4 hPa ESE 4.8 km/h -1607.7 km/h 96 % 0 mm 0 W/m2
07:00 3.1 °C 2.6 °C 1030.4 hPa ESE 4.8 km/h 6.4 km/h 96 % 0 mm 0 W/m2
07:01 3.1 °C 2.6 °C 1030.4 hPa ESE 4.8 km/h -1607.7 km/h 96 % 0 mm 0 W/m2
07:05 3.1 °C 2.6 °C 1030.4 hPa ESE 6.4 km/h 8 km/h 96 % 0 mm 0 W/m2
07:06 3.1 °C 2.6 °C 1030.4 hPa ESE 4.8 km/h -1607.7 km/h 96 % 0 mm 0 W/m2
07:10 3.1 °C 2.6 °C 1030.7 hPa ESE 6.4 km/h 6.4 km/h 96 % 0 mm 0 W/m2
07:11 3.1 °C 2.6 °C 1030.7 hPa ESE 4.8 km/h -1607.7 km/h 96 % 0 mm 0 W/m2
07:15 3.1 °C 2.6 °C 1030.7 hPa SE 3.2 km/h 8 km/h 96 % 0 mm 0 W/m2
07:16 3.1 °C 2.6 °C 1030.7 hPa ESE 4.8 km/h -1607.7 km/h 96 % 0 mm 0 W/m2
07:21 3.1 °C 2.6 °C 1030.7 hPa ESE 4.8 km/h -1607.7 km/h 96 % 0 mm 0 W/m2
07:25 3.1 °C 2.6 °C 1030.7 hPa ESE 4.8 km/h 4.8 km/h 96 % 0 mm 0 W/m2
07:26 3.1 °C 2.6 °C 1030.4 hPa ESE 4.8 km/h -1607.7 km/h 96 % 0 mm 0 W/m2
07:30 3.1 °C 2.6 °C 1030.7 hPa ESE 4.8 km/h 4.8 km/h 96 % 0 mm 0 W/m2
07:31 3.1 °C 2.6 °C 1030.4 hPa ESE 4.8 km/h -1607.7 km/h 96 % 0 mm 0 W/m2
07:35 3.1 °C 2.6 °C 1030.4 hPa NE 3.2 km/h 4.8 km/h 96 % 0 mm 0 W/m2
07:36 3.1 °C 2.6 °C 1030.4 hPa ESE 4.8 km/h -1607.7 km/h 96 % 0 mm 0 W/m2
07:40 3.1 °C 2.6 °C 1030.4 hPa East 3.2 km/h 3.2 km/h 96 % 0 mm 0 W/m2
07:41 3.1 °C 2.6 °C 1030.4 hPa East 3.2 km/h -1607.7 km/h 96 % 0 mm 0 W/m2
07:45 3.2 °C 2.6 °C 1030.4 hPa ESE 3.2 km/h 6.4 km/h 96 % 0 mm 0 W/m2
07:46 3.1 °C 2.6 °C 1030.4 hPa East 3.2 km/h -1607.7 km/h 96 % 0 mm 0 W/m2
07:50 3.2 °C 2.6 °C 1030.4 hPa East 4.8 km/h 6.4 km/h 96 % 0 mm 0 W/m2
07:51 3.1 °C 2.6 °C 1030.4 hPa East 3.2 km/h -1607.7 km/h 96 % 0 mm 0 W/m2
07:55 3.2 °C 2.6 °C 1030.4 hPa ESE 4.8 km/h 6.4 km/h 96 % 0 mm 0 W/m2
07:56 3.2 °C 2.6 °C 1030.4 hPa ESE 4.8 km/h -1607.7 km/h 96 % 0 mm 0 W/m2
08:00 3.2 °C 2.6 °C 1030.4 hPa ESE 4.8 km/h 11.3 km/h 96 % 0 mm 0 W/m2
08:01 3.2 °C 2.6 °C 1030.4 hPa ESE 4.8 km/h -1607.7 km/h 96 % 0 mm 0 W/m2
08:06 3.2 °C 2.6 °C 1030.4 hPa ESE 4.8 km/h -1607.7 km/h 96 % 0 mm 0 W/m2
08:10 3.2 °C 2.7 °C 1030.4 hPa ESE 6.4 km/h 6.4 km/h 96 % 0 mm 0 W/m2
08:11 3.2 °C 2.7 °C 1030.4 hPa ESE 6.4 km/h -1607.7 km/h 96 % 0 mm 0 W/m2
08:15 3.2 °C 2.7 °C 1030.4 hPa ESE 6.4 km/h 9.7 km/h 96 % 0 mm 0 W/m2
08:16 3.2 °C 2.7 °C 1030.4 hPa ESE 6.4 km/h -1607.7 km/h 96 % 0 mm 0 W/m2
08:20 3.3 °C 2.7 °C 1030.4 hPa East 4.8 km/h 6.4 km/h 96 % 0 mm 0 W/m2
08:21 3.2 °C 2.7 °C 1030.4 hPa ESE 6.4 km/h -1607.7 km/h 96 % 0 mm 0 W/m2
08:25 3.3 °C 2.7 °C 1030.4 hPa ESE 4.8 km/h 9.7 km/h 96 % 0 mm 0 W/m2
08:26 3.3 °C 2.6 °C 1030.4 hPa ESE 6.4 km/h -1607.7 km/h 95 % 0 mm 2 W/m2
08:30 3.3 °C 2.6 °C 1030.4 hPa ESE 6.4 km/h 8 km/h 95 % 0 mm 5 W/m2
08:31 3.3 °C 2.6 °C 1030.4 hPa ESE 6.4 km/h -1607.7 km/h 95 % 0 mm 2 W/m2
08:35 3.3 °C 2.6 °C 1030.4 hPa ESE 6.4 km/h 8 km/h 95 % 0 mm 5 W/m2
08:36 3.3 °C 2.6 °C 1030.4 hPa ESE 6.4 km/h -1607.7 km/h 95 % 0 mm 2 W/m2
08:40 3.3 °C 2.6 °C 1030.4 hPa SE 8 km/h 8 km/h 95 % 0 mm 7 W/m2
08:41 3.3 °C 2.6 °C 1030.7 hPa ESE 8 km/h -1607.7 km/h 95 % 0 mm 7 W/m2
08:45 3.3 °C 2.6 °C 1030.7 hPa East 8 km/h 8 km/h 95 % 0 mm 7 W/m2
08:46 3.3 °C 2.6 °C 1030.7 hPa ESE 8 km/h -1607.7 km/h 95 % 0 mm 7 W/m2
08:50 3.2 °C 2.5 °C 1030.4 hPa ESE 8 km/h 9.7 km/h 95 % 0 mm 11 W/m2
08:51 3.3 °C 2.6 °C 1030.7 hPa ESE 8 km/h -1607.7 km/h 95 % 0 mm 7 W/m2
08:55 3.2 °C 2.5 °C 1030.7 hPa ESE 9.7 km/h 9.7 km/h 95 % 0 mm 12 W/m2
08:56 3.2 °C 2.3 °C 1030.7 hPa ESE 8 km/h -1607.7 km/h 94 % 0 mm 12 W/m2
09:01 3.2 °C 2.3 °C 1030.7 hPa ESE 8 km/h -1607.7 km/h 94 % 0 mm 12 W/m2
09:05 3.2 °C 2.3 °C 1030.4 hPa SE 8 km/h 11.3 km/h 94 % 0 mm 18 W/m2
09:06 3.2 °C 2.3 °C 1030.7 hPa ESE 8 km/h -1607.7 km/h 94 % 0 mm 12 W/m2
09:10 3.2 °C 2.3 °C 1030.4 hPa ESE 8 km/h 8 km/h 94 % 0 mm 18 W/m2
09:11 3.2 °C 2.3 °C 1030.4 hPa ESE 8 km/h -1607.7 km/h 94 % 0 mm 18 W/m2
09:16 3.2 °C 2.3 °C 1030.4 hPa ESE 8 km/h -1607.7 km/h 94 % 0 mm 18 W/m2
09:20 3.3 °C 2.4 °C 1030.7 hPa ESE 6.4 km/h 6.4 km/h 94 % 0 mm 21 W/m2
09:21 3.2 °C 2.3 °C 1030.4 hPa ESE 8 km/h -1607.7 km/h 94 % 0 mm 18 W/m2
09:25 3.3 °C 2.3 °C 1030.4 hPa ENE 6.4 km/h 6.4 km/h 93 % 0 mm 25 W/m2
09:26 3.3 °C 2.3 °C 1030.4 hPa ESE 6.4 km/h -1607.7 km/h 93 % 0 mm 23 W/m2
09:30 3.3 °C 2.3 °C 1030.4 hPa ESE 6.4 km/h 6.4 km/h 93 % 0 mm 26 W/m2
09:31 3.3 °C 2.3 °C 1030.4 hPa ESE 6.4 km/h -1607.7 km/h 93 % 0 mm 23 W/m2
09:35 3.3 °C 2.3 °C 1030.4 hPa ESE 8 km/h 9.7 km/h 93 % 0 mm 37 W/m2
09:36 3.3 °C 2.3 °C 1030.4 hPa ESE 6.4 km/h -1607.7 km/h 93 % 0 mm 23 W/m2
09:40 3.3 °C 2.3 °C 1030.4 hPa SE 8 km/h 8 km/h 93 % 0 mm 35 W/m2
09:41 3.3 °C 2.3 °C 1030.4 hPa ESE 8 km/h -1607.7 km/h 93 % 0 mm 32 W/m2
09:46 3.3 °C 2.3 °C 1030.4 hPa ESE 8 km/h -1607.7 km/h 93 % 0 mm 32 W/m2
09:50 3.3 °C 2.2 °C 1030.4 hPa East 6.4 km/h 6.4 km/h 92 % 0 mm 39 W/m2
09:51 3.3 °C 2.3 °C 1030.4 hPa ESE 8 km/h -1607.7 km/h 93 % 0 mm 32 W/m2
09:55 3.4 °C 2.2 °C 1030.4 hPa ESE 6.4 km/h 6.4 km/h 92 % 0 mm 32 W/m2
09:56 3.3 °C 2.2 °C 1030.4 hPa ESE 4.8 km/h -1607.7 km/h 92 % 0 mm 34 W/m2
10:00 3.4 °C 2.2 °C 1030.4 hPa SE 4.8 km/h 6.4 km/h 92 % 0 mm 32 W/m2
10:01 3.3 °C 2.2 °C 1030.4 hPa ESE 4.8 km/h -1607.7 km/h 92 % 0 mm 34 W/m2
10:05 3.4 °C 2.3 °C 1030.4 hPa East 3.2 km/h 6.4 km/h 92 % 0 mm 30 W/m2
10:06 3.3 °C 2.2 °C 1030.4 hPa ESE 4.8 km/h -1607.7 km/h 92 % 0 mm 34 W/m2
10:10 3.5 °C 2.3 °C 1030 hPa East 3.2 km/h 8 km/h 92 % 0 mm 28 W/m2
10:11 3.5 °C 2.3 °C 1030 hPa ESE 3.2 km/h -1607.7 km/h 92 % 0 mm 28 W/m2
10:15 3.5 °C 2.3 °C 1030 hPa East 4.8 km/h 8 km/h 92 % 0 mm 26 W/m2
10:16 3.5 °C 2.3 °C 1030 hPa ESE 3.2 km/h -1607.7 km/h 92 % 0 mm 28 W/m2
10:20 3.5 °C 2.3 °C 1030 hPa East 4.8 km/h 8 km/h 92 % 0 mm 23 W/m2
10:21 3.5 °C 2.3 °C 1030 hPa ESE 3.2 km/h -1607.7 km/h 92 % 0 mm 28 W/m2
10:26 3.5 °C 2.3 °C 1030 hPa ESE 6.4 km/h -1607.7 km/h 92 % 0 mm 24 W/m2
10:30 3.5 °C 2.3 °C 1030 hPa East 6.4 km/h 11.3 km/h 92 % 0 mm 26 W/m2
10:31 3.5 °C 2.3 °C 1030 hPa ESE 6.4 km/h -1607.7 km/h 92 % 0 mm 24 W/m2
10:36 3.5 °C 2.3 °C 1030 hPa ESE 6.4 km/h -1607.7 km/h 92 % 0 mm 24 W/m2
10:40 3.6 °C 2.2 °C 1030 hPa SE 8 km/h 8 km/h 91 % 0 mm 26 W/m2
10:41 3.5 °C 2.2 °C 1030 hPa SE 8 km/h -1607.7 km/h 91 % 0 mm 25 W/m2
10:45 3.6 °C 2.4 °C 1030 hPa SE 8 km/h 11.3 km/h 92 % 0 mm 28 W/m2
10:46 3.5 °C 2.2 °C 1030 hPa SE 8 km/h -1607.7 km/h 91 % 0 mm 25 W/m2
10:50 3.6 °C 2.2 °C 1030 hPa SE 9.7 km/h 11.3 km/h 91 % 0 mm 28 W/m2
10:51 3.5 °C 2.2 °C 1030 hPa SE 8 km/h -1607.7 km/h 91 % 0 mm 25 W/m2
10:55 3.6 °C 2.2 °C 1030 hPa SE 9.7 km/h 11.3 km/h 91 % 0 mm 30 W/m2
10:56 3.6 °C 2.2 °C 1029.7 hPa SE 9.7 km/h -1607.7 km/h 91 % 0 mm 31 W/m2
11:00 3.6 °C 2.3 °C 1029.7 hPa SSE 11.3 km/h 11.3 km/h 91 % 0 mm 33 W/m2
11:01 3.6 °C 2.2 °C 1029.7 hPa SE 9.7 km/h -1607.7 km/h 91 % 0 mm 31 W/m2
11:05 3.6 °C 2.3 °C 1029.7 hPa SE 11.3 km/h 11.3 km/h 91 % 0 mm 33 W/m2
11:06 3.6 °C 2.2 °C 1029.7 hPa SE 9.7 km/h -1607.7 km/h 91 % 0 mm 31 W/m2
11:10 3.6 °C 2.3 °C 1029.7 hPa SE 9.7 km/h 9.7 km/h 91 % 0 mm 32 W/m2
11:11 3.6 °C 2.3 °C 1029.7 hPa SE 6.4 km/h -1607.7 km/h 91 % 0 mm 34 W/m2
11:15 3.7 °C 2.3 °C 1029.7 hPa SE 6.4 km/h 9.7 km/h 91 % 0 mm 39 W/m2
11:16 3.6 °C 2.3 °C 1029.7 hPa SE 6.4 km/h -1607.7 km/h 91 % 0 mm 34 W/m2
11:20 3.7 °C 2.3 °C 1029.7 hPa SSE 4.8 km/h 9.7 km/h 91 % 0 mm 58 W/m2
11:21 3.6 °C 2.3 °C 1029.7 hPa SE 6.4 km/h -1607.7 km/h 91 % 0 mm 34 W/m2
11:25 3.7 °C 2.4 °C 1029.7 hPa SSE 6.4 km/h 9.7 km/h 91 % 0 mm 60 W/m2
11:26 3.7 °C 2.4 °C 1029.7 hPa SSE 8 km/h -1607.7 km/h 91 % 0 mm 58 W/m2
11:31 3.7 °C 2.4 °C 1029.7 hPa SSE 8 km/h -1607.7 km/h 91 % 0 mm 58 W/m2
11:35 3.8 °C 2.5 °C 1029.7 hPa SSE 8 km/h 11.3 km/h 91 % 0 mm 54 W/m2
11:36 3.7 °C 2.4 °C 1029.7 hPa SSE 8 km/h -1607.7 km/h 91 % 0 mm 58 W/m2
11:41 3.9 °C 2.6 °C 1029.3 hPa South 6.4 km/h -1607.7 km/h 91 % 0 mm 59 W/m2
11:45 3.9 °C 2.6 °C 1029.3 hPa South 6.4 km/h 8 km/h 91 % 0 mm 62 W/m2
11:46 3.9 °C 2.6 °C 1029.3 hPa South 6.4 km/h -1607.7 km/h 91 % 0 mm 59 W/m2
11:50 4 °C 2.5 °C 1029.3 hPa SSE 6.4 km/h 8 km/h 90 % 0 mm 56 W/m2
11:51 3.9 °C 2.6 °C 1029.3 hPa South 6.4 km/h -1607.7 km/h 91 % 0 mm 59 W/m2
11:55 4 °C 2.5 °C 1029.3 hPa SSE 6.4 km/h 8 km/h 90 % 0 mm 51 W/m2
11:56 4 °C 2.5 °C 1029 hPa SSE 8 km/h -1607.7 km/h 90 % 0 mm 58 W/m2
12:00 4 °C 2.5 °C 1029 hPa South 8 km/h 8 km/h 90 % 0 mm 60 W/m2
12:01 4 °C 2.5 °C 1029 hPa SSE 8 km/h -1607.7 km/h 90 % 0 mm 58 W/m2
12:06 4 °C 2.5 °C 1029 hPa SSE 8 km/h -1607.7 km/h 90 % 0 mm 58 W/m2
12:10 4.1 °C 2.6 °C 1029 hPa SSW 6.4 km/h 6.4 km/h 90 % 0 mm 62 W/m2
12:11 4.1 °C 2.6 °C 1028.7 hPa SSE 6.4 km/h -1607.7 km/h 90 % 0 mm 65 W/m2
12:15 4.1 °C 2.6 °C 1029 hPa SE 4.8 km/h 6.4 km/h 90 % 0 mm 67 W/m2
12:16 4.1 °C 2.6 °C 1028.7 hPa SSE 6.4 km/h -1607.7 km/h 90 % 0 mm 65 W/m2
12:20 4.1 °C 2.6 °C 1028.7 hPa SSE 4.8 km/h 4.8 km/h 90 % 0 mm 63 W/m2
12:21 4.1 °C 2.6 °C 1028.7 hPa SSE 6.4 km/h -1607.7 km/h 90 % 0 mm 65 W/m2
12:25 4.2 °C 2.7 °C 1028.7 hPa SE 3.2 km/h 4.8 km/h 90 % 0 mm 54 W/m2
12:26 4.2 °C 2.7 °C 1028.7 hPa SSE 1.6 km/h -1607.7 km/h 90 % 0 mm 57 W/m2
12:30 4.2 °C 2.7 °C 1028.7 hPa SE 1.6 km/h 1.6 km/h 90 % 0 mm 51 W/m2
12:31 4.2 °C 2.7 °C 1028.7 hPa SSE 1.6 km/h -1607.7 km/h 90 % 0 mm 57 W/m2
12:35 4.3 °C 2.8 °C 1028.7 hPa SE 3.2 km/h 3.2 km/h 90 % 0 mm 60 W/m2
12:36 4.2 °C 2.7 °C 1028.7 hPa SSE 1.6 km/h -1607.7 km/h 90 % 0 mm 57 W/m2
12:41 4.3 °C 2.6 °C 1028.3 hPa SE 4.8 km/h -1607.7 km/h 89 % 0 mm 48 W/m2
12:45 4.3 °C 2.7 °C 1028.3 hPa SE 4.8 km/h 11.3 km/h 89 % 0 mm 39 W/m2
12:46 4.3 °C 2.6 °C 1028.3 hPa SE 4.8 km/h -1607.7 km/h 89 % 0 mm 48 W/m2
12:51 4.3 °C 2.6 °C 1028.3 hPa SE 4.8 km/h -1607.7 km/h 89 % 0 mm 48 W/m2
12:55 4.4 °C 2.7 °C 1028.3 hPa East 6.4 km/h 8 km/h 89 % 0 mm 47 W/m2
12:56 4.4 °C 2.7 °C 1028.3 hPa SE 6.4 km/h -1607.7 km/h 89 % 0 mm 44 W/m2
13:00 4.4 °C 2.7 °C 1028.3 hPa East 4.8 km/h 8 km/h 89 % 0 mm 46 W/m2
13:01 4.4 °C 2.7 °C 1028.3 hPa SE 6.4 km/h -1607.7 km/h 89 % 0 mm 44 W/m2
13:05 4.4 °C 2.7 °C 1028.3 hPa ESE 6.4 km/h 8 km/h 89 % 0 mm 44 W/m2
13:06 4.4 °C 2.7 °C 1028.3 hPa SE 6.4 km/h -1607.7 km/h 89 % 0 mm 44 W/m2
13:10 4.4 °C 2.7 °C 1028 hPa East 6.4 km/h 11.3 km/h 89 % 0 mm 44 W/m2
13:11 4.4 °C 2.7 °C 1028 hPa ESE 6.4 km/h -1607.7 km/h 89 % 0 mm 45 W/m2
13:15 4.3 °C 2.7 °C 1028 hPa SE 4.8 km/h 11.3 km/h 89 % 0 mm 40 W/m2
13:16 4.4 °C 2.7 °C 1028 hPa ESE 6.4 km/h -1607.7 km/h 89 % 0 mm 45 W/m2
13:20 4.3 °C 2.7 °C 1028 hPa ESE 4.8 km/h 4.8 km/h 89 % 0 mm 46 W/m2
13:21 4.4 °C 2.7 °C 1028 hPa ESE 6.4 km/h -1607.7 km/h 89 % 0 mm 45 W/m2
13:25 4.3 °C 2.7 °C 1028 hPa ESE 4.8 km/h 9.7 km/h 89 % 0 mm 47 W/m2
13:26 4.3 °C 2.8 °C 1027.7 hPa ESE 4.8 km/h -1607.7 km/h 90 % 0 mm 47 W/m2
13:30 4.3 °C 2.8 °C 1027.7 hPa ESE 4.8 km/h 4.8 km/h 90 % 0 mm 42 W/m2
13:31 4.3 °C 2.8 °C 1027.7 hPa ESE 4.8 km/h -1607.7 km/h 90 % 0 mm 47 W/m2
13:35 4.3 °C 2.8 °C 1027.7 hPa East 3.2 km/h 4.8 km/h 90 % 0 mm 49 W/m2
13:36 4.3 °C 2.8 °C 1027.7 hPa ESE 4.8 km/h -1607.7 km/h 90 % 0 mm 47 W/m2
13:41 4.3 °C 2.8 °C 1027.7 hPa ESE 3.2 km/h -1607.7 km/h 90 % 0 mm 42 W/m2
13:46 4.3 °C 2.8 °C 1027.7 hPa ESE 3.2 km/h -1607.7 km/h 90 % 0 mm 42 W/m2
13:51 4.3 °C 2.8 °C 1027.7 hPa ESE 3.2 km/h -1607.7 km/h 90 % 0 mm 42 W/m2
13:56 4.3 °C 2.9 °C 1027.7 hPa ESE 3.2 km/h -1607.7 km/h 91 % 0 mm 35 W/m2
14:01 4.3 °C 2.9 °C 1027.7 hPa ESE 3.2 km/h -1607.7 km/h 91 % 0 mm 35 W/m2
14:06 4.3 °C 2.9 °C 1027.7 hPa ESE 3.2 km/h -1607.7 km/h 91 % 0 mm 35 W/m2
14:11 4.2 °C 3.1 °C 1027.3 hPa ESE 4.8 km/h -1607.7 km/h 92 % 0 mm 32 W/m2
14:16 4.2 °C 3.1 °C 1027.3 hPa ESE 4.8 km/h -1607.7 km/h 92 % 0 mm 32 W/m2
14:21 4.2 °C 3.1 °C 1027.3 hPa ESE 4.8 km/h -1607.7 km/h 92 % 0 mm 32 W/m2
14:26 4.1 °C 3.1 °C 1027.3 hPa East 3.2 km/h -1607.7 km/h 93 % 0 mm 17 W/m2
14:31 4.1 °C 3.1 °C 1027.3 hPa East 3.2 km/h -1607.7 km/h 93 % 0 mm 17 W/m2
14:36 4.1 °C 3.1 °C 1027.3 hPa East 3.2 km/h -1607.7 km/h 93 % 0 mm 17 W/m2
14:41 4.1 °C 3.2 °C 1027.3 hPa ESE 1.6 km/h -1607.7 km/h 94 % 0 mm 25 W/m2
14:46 4.1 °C 3.2 °C 1027.3 hPa ESE 1.6 km/h -1607.7 km/h 94 % 0 mm 25 W/m2
14:51 4.1 °C 3.2 °C 1027.3 hPa ESE 1.6 km/h -1607.7 km/h 94 % 0 mm 25 W/m2
14:56 4.1 °C 3.2 °C 1027 hPa Calm   -1607.7 km/h 94 % 0 mm 11 W/m2
15:01 4.1 °C 3.2 °C 1027 hPa Calm   -1607.7 km/h 94 % 0 mm 11 W/m2
15:06 4.1 °C 3.2 °C 1027 hPa Calm   -1607.7 km/h 94 % 0 mm 11 W/m2
15:11 4.1 °C 3.2 °C 1027 hPa East 1.6 km/h -1607.7 km/h 94 % 0 mm 8 W/m2
15:16 4.1 °C 3.2 °C 1027 hPa East 1.6 km/h -1607.7 km/h 94 % 0 mm 8 W/m2
15:21 4.1 °C 3.2 °C 1027 hPa East 1.6 km/h -1607.7 km/h 94 % 0 mm 8 W/m2
15:26 4.1 °C 3.3 °C 1027 hPa East 1.6 km/h -1607.7 km/h 95 % 0 mm 6 W/m2
15:31 4.1 °C 3.3 °C 1027 hPa East 1.6 km/h -1607.7 km/h 95 % 0 mm 6 W/m2
15:36 4.1 °C 3.3 °C 1027 hPa East 1.6 km/h -1607.7 km/h 95 % 0 mm 6 W/m2
15:41 4 °C 3.3 °C 1027 hPa East 3.2 km/h -1607.7 km/h 95 % 0 mm 9 W/m2
15:46 4 °C 3.3 °C 1027 hPa East 3.2 km/h -1607.7 km/h 95 % 0 mm 9 W/m2
15:51 4 °C 3.3 °C 1027 hPa East 3.2 km/h -1607.7 km/h 95 % 0 mm 9 W/m2
15:56 3.9 °C 3.2 °C 1026.6 hPa ENE 1.6 km/h -1607.7 km/h 95 % 0 mm 3 W/m2
16:01 3.9 °C 3.2 °C 1026.6 hPa ENE 1.6 km/h -1607.7 km/h 95 % 0 mm 3 W/m2
16:06 3.9 °C 3.2 °C 1026.6 hPa ENE 1.6 km/h -1607.7 km/h 95 % 0 mm 3 W/m2
16:11 3.9 °C 3.2 °C 1026.6 hPa ENE 1.6 km/h -1607.7 km/h 95 % 0 mm 0 W/m2
16:16 3.9 °C 3.2 °C 1026.6 hPa ENE 1.6 km/h -1607.7 km/h 95 % 0 mm 0 W/m2
16:21 3.9 °C 3.2 °C 1026.6 hPa ENE 1.6 km/h -1607.7 km/h 95 % 0 mm 0 W/m2
16:26 3.9 °C 3.2 °C 1026.6 hPa ENE 3.2 km/h -1607.7 km/h 95 % 0 mm 0 W/m2
16:31 3.9 °C 3.2 °C 1026.6 hPa ENE 3.2 km/h -1607.7 km/h 95 % 0 mm 0 W/m2
16:36 3.9 °C 3.2 °C 1026.6 hPa ENE 3.2 km/h -1607.7 km/h 95 % 0 mm 0 W/m2
16:41 3.8 °C 3.1 °C 1026.6 hPa ESE 1.6 km/h -1607.7 km/h 95 % 0 mm 0 W/m2
16:46 3.8 °C 3.1 °C 1026.6 hPa ESE 1.6 km/h -1607.7 km/h 95 % 0 mm 0 W/m2
16:51 3.8 °C 3.1 °C 1026.6 hPa ESE 1.6 km/h -1607.7 km/h 95 % 0 mm 0 W/m2
16:56 3.8 °C 3.1 °C 1026.6 hPa ENE 1.6 km/h -1607.7 km/h 95 % 0 mm 0 W/m2
17:01 3.8 °C 3.1 °C 1026.6 hPa ENE 1.6 km/h -1607.7 km/h 95 % 0 mm 0 W/m2
17:06 3.8 °C 3.1 °C 1026.6 hPa ENE 1.6 km/h -1607.7 km/h 95 % 0 mm 0 W/m2
17:11 3.8 °C 3.1 °C 1026.6 hPa ENE 3.2 km/h -1607.7 km/h 95 % 0 mm 0 W/m2
17:16 3.8 °C 3.1 °C 1026.6 hPa ENE 3.2 km/h -1607.7 km/h 95 % 0 mm 0 W/m2
17:21 3.8 °C 3.1 °C 1026.6 hPa ENE 3.2 km/h -1607.7 km/h 95 % 0 mm 0 W/m2
17:26 3.8 °C 3.1 °C 1026.3 hPa East 1.6 km/h -1607.7 km/h 95 % 0 mm 0 W/m2
17:31 3.8 °C 3.1 °C 1026.3 hPa East 1.6 km/h -1607.7 km/h 95 % 0 mm 0 W/m2
17:36 3.8 °C 3.1 °C 1026.3 hPa East 1.6 km/h -1607.7 km/h 95 % 0 mm 0 W/m2
17:41 3.8 °C 3.1 °C 1026.3 hPa East 1.6 km/h -1607.7 km/h 95 % 0 mm 0 W/m2
17:46 3.8 °C 3.1 °C 1026.3 hPa East 1.6 km/h -1607.7 km/h 95 % 0 mm 0 W/m2
17:51 3.8 °C 3.1 °C 1026.3 hPa East 1.6 km/h -1607.7 km/h 95 % 0 mm 0 W/m2
17:56 3.8 °C 3.1 °C 1026 hPa East 1.6 km/h -1607.7 km/h 95 % 0 mm 0 W/m2
18:01 3.8 °C 3.1 °C 1026 hPa East 1.6 km/h -1607.7 km/h 95 % 0 mm 0 W/m2
18:06 3.8 °C 3.1 °C 1026 hPa East 1.6 km/h -1607.7 km/h 95 % 0 mm 0 W/m2
18:11 3.8 °C 3.1 °C 1026 hPa Calm   -1607.7 km/h 95 % 0 mm 0 W/m2
18:16 3.8 °C 3.1 °C 1026 hPa Calm   -1607.7 km/h 95 % 0 mm 0 W/m2
18:21 3.8 °C 3.1 °C 1026 hPa Calm   -1607.7 km/h 95 % 0 mm 0 W/m2
18:26 3.8 °C 3.1 °C 1026 hPa East 1.6 km/h -1607.7 km/h 95 % 0 mm 0 W/m2
18:31 3.8 °C 3.1 °C 1026 hPa East 1.6 km/h -1607.7 km/h 95 % 0 mm 0 W/m2
18:36 3.8 °C 3.1 °C 1026 hPa East 1.6 km/h -1607.7 km/h 95 % 0 mm 0 W/m2
18:41 3.8 °C 3.1 °C 1025.6 hPa ENE 3.2 km/h -1607.7 km/h 95 % 0 mm 0 W/m2
18:46 3.8 °C 3.1 °C 1025.6 hPa ENE 3.2 km/h -1607.7 km/h 95 % 0 mm 0 W/m2
18:51 3.8 °C 3.1 °C 1025.6 hPa ENE 3.2 km/h -1607.7 km/h 95 % 0 mm 0 W/m2
18:56 3.7 °C 3 °C 1025.6 hPa ENE 3.2 km/h -1607.7 km/h 95 % 0 mm 0 W/m2
19:01 3.7 °C 3 °C 1025.6 hPa ENE 3.2 km/h -1607.7 km/h 95 % 0 mm 0 W/m2
19:06 3.7 °C 3 °C 1025.6 hPa ENE 3.2 km/h -1607.7 km/h 95 % 0 mm 0 W/m2
19:11 3.8 °C 3.1 °C 1025.6 hPa ESE 3.2 km/h -1607.7 km/h 95 % 0 mm 0 W/m2
19:16 3.8 °C 3.1 °C 1025.6 hPa ESE 3.2 km/h -1607.7 km/h 95 % 0 mm 0 W/m2
19:21 3.8 °C 3.1 °C 1025.6 hPa ESE 3.2 km/h -1607.7 km/h 95 % 0 mm 0 W/m2
19:26 3.8 °C 3.3 °C 1025.6 hPa ESE 3.2 km/h -1607.7 km/h 96 % 0 mm 0 W/m2
19:31 3.8 °C 3.3 °C 1025.6 hPa ESE 3.2 km/h -1607.7 km/h 96 % 0 mm 0 W/m2
19:36 3.8 °C 3.3 °C 1025.6 hPa ESE 3.2 km/h -1607.7 km/h 96 % 0 mm 0 W/m2
19:41 3.8 °C 3.3 °C 1025.3 hPa East 3.2 km/h -1607.7 km/h 96 % 0 mm 0 W/m2
19:46 3.8 °C 3.3 °C 1025.3 hPa East 3.2 km/h -1607.7 km/h 96 % 0 mm 0 W/m2
19:51 3.8 °C 3.3 °C 1025.3 hPa East 3.2 km/h -1607.7 km/h 96 % 0 mm 0 W/m2
19:56 3.8 °C 3.3 °C 1025.3 hPa East 3.2 km/h -1607.7 km/h 96 % 0 mm 0 W/m2
20:01 3.8 °C 3.3 °C 1025.3 hPa East 3.2 km/h -1607.7 km/h 96 % 0 mm 0 W/m2
20:06 3.8 °C 3.3 °C 1025.3 hPa East 3.2 km/h -1607.7 km/h 96 % 0 mm 0 W/m2
20:11 3.8 °C 3.3 °C 1025.3 hPa ESE 4.8 km/h -1607.7 km/h 96 % 0 mm 0 W/m2
20:16 3.8 °C 3.3 °C 1025.3 hPa ESE 4.8 km/h -1607.7 km/h 96 % 0 mm 0 W/m2
20:21 3.8 °C 3.3 °C 1025.3 hPa ESE 4.8 km/h -1607.7 km/h 96 % 0 mm 0 W/m2
20:26 3.8 °C 3.3 °C 1025.3 hPa ESE 8 km/h -1607.7 km/h 96 % 0 mm 0 W/m2
20:31 3.8 °C 3.3 °C 1025.3 hPa ESE 8 km/h -1607.7 km/h 96 % 0 mm 0 W/m2
20:36 3.8 °C 3.3 °C 1025.3 hPa ESE 8 km/h -1607.7 km/h 96 % 0 mm 0 W/m2
20:41 3.7 °C 3.2 °C 1025.3 hPa ESE 8 km/h -1607.7 km/h 96 % 0 mm 0 W/m2
20:46 3.7 °C 3.2 °C 1025.3 hPa ESE 8 km/h -1607.7 km/h 96 % 0 mm 0 W/m2
20:51 3.7 °C 3.2 °C 1025.3 hPa ESE 8 km/h -1607.7 km/h 96 % 0 mm 0 W/m2
20:56 3.7 °C 3.1 °C 1025.3 hPa ESE 8 km/h -1607.7 km/h 96 % 0 mm 0 W/m2
21:01 3.7 °C 3.1 °C 1025.3 hPa ESE 8 km/h -1607.7 km/h 96 % 0 mm 0 W/m2
21:06 3.7 °C 3.1 °C 1025.3 hPa ESE 8 km/h -1607.7 km/h 96 % 0 mm 0 W/m2
21:11 3.6 °C 3 °C 1025.3 hPa SE 9.7 km/h -1607.7 km/h 96 % 0 mm 0 W/m2
21:16 3.6 °C 3 °C 1025.3 hPa SE 9.7 km/h -1607.7 km/h 96 % 0 mm 0 W/m2
21:21 3.6 °C 3 °C 1025.3 hPa SE 9.7 km/h -1607.7 km/h 96 % 0 mm 0 W/m2
21:26 3.4 °C 2.9 °C 1025.3 hPa SE 9.7 km/h -1607.7 km/h 96 % 0 mm 0 W/m2
21:31 3.4 °C 2.9 °C 1025.3 hPa SE 9.7 km/h -1607.7 km/h 96 % 0 mm 0 W/m2
21:36 3.4 °C 2.9 °C 1025.3 hPa SE 9.7 km/h -1607.7 km/h 96 % 0 mm 0 W/m2
21:41 3.3 °C 2.6 °C 1025.3 hPa SE 8 km/h -1607.7 km/h 95 % 0 mm 0 W/m2
21:46 3.3 °C 2.6 °C 1025.3 hPa SE 8 km/h -1607.7 km/h 95 % 0 mm 0 W/m2
21:51 3.3 °C 2.6 °C 1025.3 hPa SE 8 km/h -1607.7 km/h 95 % 0 mm 0 W/m2
21:56 3.2 °C 2.3 °C 1024.9 hPa SE 8 km/h -1607.7 km/h 94 % 0 mm 0 W/m2
22:01 3.2 °C 2.3 °C 1024.9 hPa SE 8 km/h -1607.7 km/h 94 % 0 mm 0 W/m2
22:06 3.2 °C 2.3 °C 1024.9 hPa SE 8 km/h -1607.7 km/h 94 % 0 mm 0 W/m2
22:11 3.1 °C 1.8 °C 1024.9 hPa SE 11.3 km/h -1607.7 km/h 91 % 0 mm 0 W/m2
22:16 3.1 °C 1.8 °C 1024.9 hPa SE 11.3 km/h -1607.7 km/h 91 % 0 mm 0 W/m2
22:21 3.1 °C 1.8 °C 1024.9 hPa SE 11.3 km/h -1607.7 km/h 91 % 0 mm 0 W/m2
22:26 3.1 °C 1.5 °C 1024.9 hPa SE 8 km/h -1607.7 km/h 89 % 0 mm 0 W/m2
22:31 3.1 °C 1.5 °C 1024.9 hPa SE 8 km/h -1607.7 km/h 89 % 0 mm 0 W/m2
22:36 3.1 °C 1.5 °C 1024.9 hPa SE 8 km/h -1607.7 km/h 89 % 0 mm 0 W/m2
22:41 3.1 °C 0.9 °C 1024.9 hPa ESE 11.3 km/h -1607.7 km/h 86 % 0 mm 0 W/m2
22:46 3.1 °C 0.9 °C 1024.9 hPa ESE 11.3 km/h -1607.7 km/h 86 % 0 mm 0 W/m2
22:51 3.1 °C 0.9 °C 1024.9 hPa ESE 11.3 km/h -1607.7 km/h 86 % 0 mm 0 W/m2
22:56 3.2 °C 0.9 °C 1024.9 hPa SE 9.7 km/h -1607.7 km/h 85 % 0 mm 0 W/m2
23:01 3.2 °C 0.9 °C 1024.9 hPa SE 9.7 km/h -1607.7 km/h 85 % 0 mm 0 W/m2
23:06 3.2 °C 0.9 °C 1024.9 hPa SE 9.7 km/h -1607.7 km/h 85 % 0 mm 0 W/m2
23:11 3.2 °C 1.1 °C 1024.9 hPa SE 8 km/h -1607.7 km/h 86 % 0 mm 0 W/m2
23:16 3.2 °C 1.1 °C 1024.9 hPa SE 8 km/h -1607.7 km/h 86 % 0 mm 0 W/m2
23:21 3.2 °C 1.1 °C 1024.9 hPa SE 8 km/h -1607.7 km/h 86 % 0 mm 0 W/m2
23:26 3.2 °C 1.3 °C 1024.9 hPa SE 4.8 km/h -1607.7 km/h 87 % 0 mm 0 W/m2
23:31 3.2 °C 1.3 °C 1024.9 hPa SE 4.8 km/h -1607.7 km/h 87 % 0 mm 0 W/m2
23:36 3.2 °C 1.3 °C 1024.9 hPa SE 4.8 km/h -1607.7 km/h 87 % 0 mm 0 W/m2
23:41 3.2 °C 1.4 °C 1024.9 hPa SE 4.8 km/h -1607.7 km/h 88 % 0 mm 0 W/m2
23:46 3.2 °C 1.4 °C 1024.9 hPa SE 4.8 km/h -1607.7 km/h 88 % 0 mm 0 W/m2
23:51 3.2 °C 1.4 °C 1024.9 hPa SE 4.8 km/h -1607.7 km/h 88 % 0 mm 0 W/m2
23:56 3.1 °C 1.3 °C 1024.9 hPa SE 1.6 km/h -1607.7 km/h 88 % 0 mm 0 W/m2
Delerius-Weather
Compliments of Weather Underground - 3 mb

Data updates at regular intervals.